sensor_id;sensor_type;location;lat;lon;timestamp;pressure;altitude;pressure_sealevel;temperature;humidity
29383;BME280;16365;51.598;7.668;2023-03-13T00:03:44;99784.09;;;16.78;48.67
29383;BME280;16365;51.598;7.668;2023-03-13T00:06:10;99783.69;;;16.80;48.75
29383;BME280;16365;51.598;7.668;2023-03-13T00:08:37;99781.69;;;16.80;48.60
29383;BME280;16365;51.598;7.668;2023-03-13T00:11:04;99768.09;;;16.82;48.35
29383;BME280;16365;51.598;7.668;2023-03-13T00:13:33;99767.28;;;16.82;48.35
29383;BME280;16365;51.598;7.668;2023-03-13T00:16:06;99765.28;;;16.82;48.54
29383;BME280;16365;51.598;7.668;2023-03-13T00:18:34;99753.72;;;16.84;48.47
29383;BME280;16365;51.598;7.668;2023-03-13T00:21:01;99758.91;;;16.85;48.68
29383;BME280;16365;51.598;7.668;2023-03-13T00:23:28;99750.53;;;16.85;48.33
29383;BME280;16365;51.598;7.668;2023-03-13T00:25:55;99749.72;;;16.85;48.57
29383;BME280;16365;51.598;7.668;2023-03-13T00:28:21;99734.53;;;16.86;48.39
29383;BME280;16365;51.598;7.668;2023-03-13T00:30:47;99734.53;;;16.86;48.37
29383;BME280;16365;51.598;7.668;2023-03-13T00:33:14;99728.13;;;16.85;48.69
29383;BME280;16365;51.598;7.668;2023-03-13T00:35:40;99726.91;;;16.86;48.92
29383;BME280;16365;51.598;7.668;2023-03-13T00:38:07;99723.75;;;16.88;48.24
29383;BME280;16365;51.598;7.668;2023-03-13T00:40:33;99728.16;;;16.89;48.50
29383;BME280;16365;51.598;7.668;2023-03-13T00:43:00;99722.94;;;16.91;48.38
29383;BME280;16365;51.598;7.668;2023-03-13T00:45:26;99720.94;;;16.91;48.45
29383;BME280;16365;51.598;7.668;2023-03-13T00:47:53;99717.75;;;16.93;48.27
29383;BME280;16365;51.598;7.668;2023-03-13T00:50:20;99704.56;;;16.93;48.32
29383;BME280;16365;51.598;7.668;2023-03-13T00:52:47;99709.38;;;16.93;48.19
29383;BME280;16365;51.598;7.668;2023-03-13T00:55:13;99708.56;;;16.92;48.39
29383;BME280;16365;51.598;7.668;2023-03-13T00:57:40;99701.34;;;16.91;48.33
29383;BME280;16365;51.598;7.668;2023-03-13T01:00:06;99690.13;;;16.91;48.81
29383;BME280;16365;51.598;7.668;2023-03-13T01:02:33;99684.53;;;16.91;49.01
29383;BME280;16365;51.598;7.668;2023-03-13T01:05:00;99681.75;;;16.91;48.56
29383;BME280;16365;51.598;7.668;2023-03-13T01:07:27;99682.16;;;16.90;48.56
29383;BME280;16365;51.598;7.668;2023-03-13T01:09:54;99674.94;;;16.89;48.81
29383;BME280;16365;51.598;7.668;2023-03-13T01:12:21;99668.94;;;16.87;48.89
29383;BME280;16365;51.598;7.668;2023-03-13T01:14:48;99662.53;;;16.86;48.73
29383;BME280;16365;51.598;7.668;2023-03-13T01:17:15;99660.13;;;16.85;49.15
29383;BME280;16365;51.598;7.668;2023-03-13T01:19:41;99652.94;;;16.84;49.05
29383;BME280;16365;51.598;7.668;2023-03-13T01:22:07;99650.53;;;16.82;48.75
29383;BME280;16365;51.598;7.668;2023-03-13T01:24:36;99630.53;;;16.80;49.32
29383;BME280;16365;51.598;7.668;2023-03-13T01:27:03;99630.94;;;16.79;49.08
29383;BME280;16365;51.598;7.668;2023-03-13T01:29:29;99628.50;;;16.77;49.18
29383;BME280;16365;51.598;7.668;2023-03-13T01:31:55;99619.31;;;16.77;49.31
29383;BME280;16365;51.598;7.668;2023-03-13T01:34:22;99612.13;;;16.76;49.41
29383;BME280;16365;51.598;7.668;2023-03-13T01:36:51;99601.34;;;16.74;49.11
29383;BME280;16365;51.598;7.668;2023-03-13T01:39:17;99593.75;;;16.75;49.14
29383;BME280;16365;51.598;7.668;2023-03-13T01:41:43;99591.72;;;16.75;49.14
29383;BME280;16365;51.598;7.668;2023-03-13T01:44:21;99594.53;;;16.75;49.50
29383;BME280;16365;51.598;7.668;2023-03-13T01:46:47;99588.53;;;16.73;49.09
29383;BME280;16365;51.598;7.668;2023-03-13T01:54:16;99578.91;;;16.70;49.59
29383;BME280;16365;51.598;7.668;2023-03-13T01:59:11;99558.50;;;16.70;49.34
29383;BME280;16365;51.598;7.668;2023-03-13T02:01:40;99556.13;;;16.68;49.66
29383;BME280;16365;51.598;7.668;2023-03-13T02:04:09;99536.13;;;16.70;49.38
29383;BME280;16365;51.598;7.668;2023-03-13T02:06:37;99533.31;;;16.70;49.81
29383;BME280;16365;51.598;7.668;2023-03-13T02:09:07;99519.75;;;16.72;49.69
29383;BME280;16365;51.598;7.668;2023-03-13T02:11:43;99515.31;;;16.71;49.69
29383;BME280;16365;51.598;7.668;2023-03-13T02:14:11;99510.94;;;16.70;49.49
29383;BME280;16365;51.598;7.668;2023-03-13T02:16:37;99502.53;;;16.70;49.43
29383;BME280;16365;51.598;7.668;2023-03-13T02:19:14;99491.75;;;16.68;49.73
29383;BME280;16365;51.598;7.668;2023-03-13T02:21:42;99499.31;;;16.68;49.81
29383;BME280;16365;51.598;7.668;2023-03-13T02:24:16;99479.34;;;16.66;49.61
29383;BME280;16365;51.598;7.668;2023-03-13T02:26:46;99485.72;;;16.63;49.77
29383;BME280;16365;51.598;7.668;2023-03-13T02:29:13;99466.16;;;16.59;49.77
29383;BME280;16365;51.598;7.668;2023-03-13T02:31:46;99463.34;;;16.56;49.39
29383;BME280;16365;51.598;7.668;2023-03-13T02:34:17;99458.94;;;16.51;49.54
29383;BME280;16365;51.598;7.668;2023-03-13T02:36:44;99451.34;;;16.48;49.71
29383;BME280;16365;51.598;7.668;2023-03-13T02:39:11;99444.16;;;16.47;49.89
29383;BME280;16365;51.598;7.668;2023-03-13T02:41:39;99440.97;;;16.45;49.97
29383;BME280;16365;51.598;7.668;2023-03-13T02:44:07;99424.56;;;16.43;49.77
29383;BME280;16365;51.598;7.668;2023-03-13T02:46:44;99410.97;;;16.42;50.03
29383;BME280;16365;51.598;7.668;2023-03-13T02:49:18;99401.41;;;16.39;49.80
29383;BME280;16365;51.598;7.668;2023-03-13T02:51:45;99401.41;;;16.39;49.98
29383;BME280;16365;51.598;7.668;2023-03-13T02:54:13;99405.00;;;16.36;49.83
29383;BME280;16365;51.598;7.668;2023-03-13T02:56:42;99407.41;;;16.34;49.71
29383;BME280;16365;51.598;7.668;2023-03-13T02:59:08;99399.78;;;16.31;49.76
29383;BME280;16365;51.598;7.668;2023-03-13T03:01:35;99391.00;;;16.29;49.92
29383;BME280;16365;51.598;7.668;2023-03-13T03:04:01;99385.00;;;16.27;49.95
29383;BME280;16365;51.598;7.668;2023-03-13T03:06:28;99395.00;;;16.25;50.01
29383;BME280;16365;51.598;7.668;2023-03-13T03:08:54;99375.00;;;16.23;50.16
29383;BME280;16365;51.598;7.668;2023-03-13T03:11:20;99377.00;;;16.22;50.16
29383;BME280;16365;51.598;7.668;2023-03-13T03:13:47;99379.81;;;16.22;50.19
29383;BME280;16365;51.598;7.668;2023-03-13T03:16:14;99370.63;;;16.22;50.60
29383;BME280;16365;51.598;7.668;2023-03-13T03:18:43;99370.63;;;16.22;50.50
29383;BME280;16365;51.598;7.668;2023-03-13T03:21:12;99357.44;;;16.22;50.36
29383;BME280;16365;51.598;7.668;2023-03-13T03:23:38;99351.84;;;16.22;50.48
29383;BME280;16365;51.598;7.668;2023-03-13T03:26:05;99357.84;;;16.21;50.34
29383;BME280;16365;51.598;7.668;2023-03-13T03:28:31;99353.44;;;16.23;50.77
29383;BME280;16365;51.598;7.668;2023-03-13T03:31:02;99349.44;;;16.24;50.91
29383;BME280;16365;51.598;7.668;2023-03-13T03:33:28;99337.88;;;16.26;50.34
29383;BME280;16365;51.598;7.668;2023-03-13T03:35:59;99334.66;;;16.27;50.85
29383;BME280;16365;51.598;7.668;2023-03-13T03:38:25;99346.25;;;16.29;50.37
29383;BME280;16365;51.598;7.668;2023-03-13T03:40:54;99342.25;;;16.30;50.87
29383;BME280;16365;51.598;7.668;2023-03-13T03:43:21;99336.25;;;16.32;50.89
29383;BME280;16365;51.598;7.668;2023-03-13T03:45:47;99299.91;;;16.32;50.69
29383;BME280;16365;51.598;7.668;2023-03-13T03:48:14;99324.66;;;16.33;50.73
29383;BME280;16365;51.598;7.668;2023-03-13T03:50:40;99317.91;;;16.34;50.62
29383;BME280;16365;51.598;7.668;2023-03-13T03:53:06;99302.69;;;16.35;50.79
29383;BME280;16365;51.598;7.668;2023-03-13T03:55:33;99305.88;;;16.37;51.02
29383;BME280;16365;51.598;7.668;2023-03-13T03:58:00;99324.25;;;16.38;50.82
29383;BME280;16365;51.598;7.668;2023-03-13T04:00:27;99321.47;;;16.38;51.27
29383;BME280;16365;51.598;7.668;2023-03-13T04:02:53;99311.88;;;16.39;50.95
29383;BME280;16365;51.598;7.668;2023-03-13T04:05:21;99305.88;;;16.41;50.93
29383;BME280;16365;51.598;7.668;2023-03-13T04:07:48;99307.06;;;16.43;51.19
29383;BME280;16365;51.598;7.668;2023-03-13T04:10:14;99303.09;;;16.44;51.19
29383;BME280;16365;51.598;7.668;2023-03-13T04:12:42;99299.88;;;16.46;50.99
29383;BME280;16365;51.598;7.668;2023-03-13T04:15:09;99288.28;;;16.48;51.33
29383;BME280;16365;51.598;7.668;2023-03-13T04:17:35;99289.50;;;16.50;51.12
29383;BME280;16365;51.598;7.668;2023-03-13T04:20:02;99295.09;;;16.54;51.34
29383;BME280;16365;51.598;7.668;2023-03-13T04:22:30;99298.25;;;16.56;51.15
29383;BME280;16365;51.598;7.668;2023-03-13T04:24:56;99306.66;;;16.59;51.44
29383;BME280;16365;51.598;7.668;2023-03-13T04:27:23;99285.44;;;16.62;51.14
29383;BME280;16365;51.598;7.668;2023-03-13T04:29:49;99293.84;;;16.65;51.55
29383;BME280;16365;51.598;7.668;2023-03-13T04:32:15;99290.63;;;16.70;51.50
29383;BME280;16365;51.598;7.668;2023-03-13T04:34:41;99300.66;;;16.75;51.24
29383;BME280;16365;51.598;7.668;2023-03-13T04:37:08;99279.03;;;16.79;51.06
29383;BME280;16365;51.598;7.668;2023-03-13T04:39:34;99271.81;;;16.82;51.07
29383;BME280;16365;51.598;7.668;2023-03-13T04:42:01;99263.81;;;16.87;51.13
29383;BME280;16365;51.598;7.668;2023-03-13T04:44:27;99273.00;;;16.91;51.40
29383;BME280;16365;51.598;7.668;2023-03-13T04:46:53;99260.19;;;16.94;51.27
29383;BME280;16365;51.598;7.668;2023-03-13T04:49:20;99253.38;;;16.99;51.22
29383;BME280;16365;51.598;7.668;2023-03-13T04:51:46;99249.75;;;17.02;51.16
29383;BME280;16365;51.598;7.668;2023-03-13T04:54:13;99244.13;;;17.05;51.03
29383;BME280;16365;51.598;7.668;2023-03-13T04:56:39;99250.13;;;17.07;51.06
29383;BME280;16365;51.598;7.668;2023-03-13T04:59:12;99257.69;;;17.10;51.15
29383;BME280;16365;51.598;7.668;2023-03-13T05:01:39;99266.50;;;17.12;51.13
29383;BME280;16365;51.598;7.668;2023-03-13T05:04:06;99265.69;;;17.15;51.48
29383;BME280;16365;51.598;7.668;2023-03-13T05:06:34;99263.28;;;17.17;51.17
29383;BME280;16365;51.598;7.668;2023-03-13T05:09:00;99267.25;;;17.20;51.11
29383;BME280;16365;51.598;7.668;2023-03-13T05:11:27;99255.66;;;17.21;51.04
29383;BME280;16365;51.598;7.668;2023-03-13T05:13:53;99259.63;;;17.24;51.24
29383;BME280;16365;51.598;7.668;2023-03-13T05:16:20;99256.41;;;17.26;51.52
29383;BME280;16365;51.598;7.668;2023-03-13T05:18:46;99250.81;;;17.26;51.16
29383;BME280;16365;51.598;7.668;2023-03-13T05:21:12;99260.03;;;17.26;51.58
29383;BME280;16365;51.598;7.668;2023-03-13T05:23:39;99244.41;;;17.25;51.42
29383;BME280;16365;51.598;7.668;2023-03-13T05:26:05;99254.81;;;17.25;51.50
29383;BME280;16365;51.598;7.668;2023-03-13T05:28:31;99238.44;;;17.27;51.26
29383;BME280;16365;51.598;7.668;2023-03-13T05:30:58;99243.25;;;17.26;51.50
29383;BME280;16365;51.598;7.668;2023-03-13T05:33:24;99244.03;;;17.27;51.22
29383;BME280;16365;51.598;7.668;2023-03-13T05:35:51;99231.19;;;17.29;51.21
29383;BME280;16365;51.598;7.668;2023-03-13T05:38:17;99225.16;;;17.31;51.73
29383;BME280;16365;51.598;7.668;2023-03-13T05:40:44;99219.19;;;17.32;51.28
29383;BME280;16365;51.598;7.668;2023-03-13T05:43:10;99221.13;;;17.35;51.77
29383;BME280;16365;51.598;7.668;2023-03-13T05:45:37;99216.75;;;17.38;51.42
29383;BME280;16365;51.598;7.668;2023-03-13T05:48:03;99212.72;;;17.39;51.52
29383;BME280;16365;51.598;7.668;2023-03-13T05:50:30;99216.72;;;17.41;51.97
29383;BME280;16365;51.598;7.668;2023-03-13T05:52:56;99227.88;;;17.45;51.43
29383;BME280;16365;51.598;7.668;2023-03-13T05:55:22;99224.69;;;17.46;51.62
29383;BME280;16365;51.598;7.668;2023-03-13T05:57:49;99228.66;;;17.49;51.81
29383;BME280;16365;51.598;7.668;2023-03-13T06:00:15;99237.03;;;17.53;51.92
29383;BME280;16365;51.598;7.668;2023-03-13T06:02:42;99225.03;;;17.56;51.72
29383;BME280;16365;51.598;7.668;2023-03-13T06:05:09;99239.41;;;17.58;51.55
29383;BME280;16365;51.598;7.668;2023-03-13T06:07:35;99230.19;;;17.61;51.51
29383;BME280;16365;51.598;7.668;2023-03-13T06:10:02;99243.38;;;17.64;51.97
29383;BME280;16365;51.598;7.668;2023-03-13T06:12:30;99249.75;;;17.64;51.49
29383;BME280;16365;51.598;7.668;2023-03-13T06:14:56;99247.38;;;17.63;51.54
29383;BME280;16365;51.598;7.668;2023-03-13T06:17:23;99255.00;;;17.59;52.05
29383;BME280;16365;51.598;7.668;2023-03-13T06:19:51;99241.34;;;17.64;52.07
29383;BME280;16365;51.598;7.668;2023-03-13T06:22:19;99244.13;;;17.68;51.61
29383;BME280;16365;51.598;7.668;2023-03-13T06:24:45;99240.13;;;17.69;51.65
29383;BME280;16365;51.598;7.668;2023-03-13T06:27:14;99221.28;;;17.69;51.43
29383;BME280;16365;51.598;7.668;2023-03-13T06:29:41;99218.50;;;17.69;51.61
29383;BME280;16365;51.598;7.668;2023-03-13T06:32:08;99227.72;;;17.70;51.75
29383;BME280;16365;51.598;7.668;2023-03-13T06:34:34;99224.50;;;17.71;51.77
29383;BME280;16365;51.598;7.668;2023-03-13T06:37:01;99220.91;;;17.71;51.50
29383;BME280;16365;51.598;7.668;2023-03-13T06:39:27;99224.09;;;17.73;51.46
29383;BME280;16365;51.598;7.668;2023-03-13T06:41:57;99217.69;;;17.72;52.06
29383;BME280;16365;51.598;7.668;2023-03-13T06:44:23;99223.28;;;17.76;51.55
29383;BME280;16365;51.598;7.668;2023-03-13T06:46:49;99222.06;;;17.77;51.54
29383;BME280;16365;51.598;7.668;2023-03-13T06:49:16;99218.84;;;17.79;51.61
29383;BME280;16365;51.598;7.668;2023-03-13T06:51:42;99218.03;;;17.82;51.69
29383;BME280;16365;51.598;7.668;2023-03-13T06:54:08;99210.00;;;17.84;51.74
29383;BME280;16365;51.598;7.668;2023-03-13T06:56:35;99205.56;;;17.86;52.01
29383;BME280;16365;51.598;7.668;2023-03-13T06:59:01;99213.16;;;17.89;52.16
29383;BME280;16365;51.598;7.668;2023-03-13T07:01:28;99207.91;;;17.95;51.75
29383;BME280;16365;51.598;7.668;2023-03-13T07:03:56;99218.69;;;18.00;51.84
29383;BME280;16365;51.598;7.668;2023-03-13T07:06:27;99217.44;;;18.05;51.90
29383;BME280;16365;51.598;7.668;2023-03-13T07:08:53;99218.56;;;18.11;52.13
29383;BME280;16365;51.598;7.668;2023-03-13T07:11:19;99224.94;;;18.15;51.84
29383;BME280;16365;51.598;7.668;2023-03-13T07:13:46;99225.28;;;18.20;52.07
29383;BME280;16365;51.598;7.668;2023-03-13T07:16:12;99221.22;;;18.25;52.33
29383;BME280;16365;51.598;7.668;2023-03-13T07:18:41;99216.34;;;18.33;52.13
29383;BME280;16365;51.598;7.668;2023-03-13T07:21:09;99215.09;;;18.37;52.09
29383;BME280;16365;51.598;7.668;2023-03-13T07:23:37;99224.66;;;18.43;51.84
29383;BME280;16365;51.598;7.668;2023-03-13T07:26:14;99218.59;;;18.48;52.12
29383;BME280;16365;51.598;7.668;2023-03-13T07:28:45;99210.50;;;18.54;51.96
29383;BME280;16365;51.598;7.668;2023-03-13T07:31:27;99212.41;;;18.61;51.87
29383;BME280;16365;51.598;7.668;2023-03-13T07:33:55;99221.19;;;18.66;51.78
29383;BME280;16365;51.598;7.668;2023-03-13T07:36:23;99203.09;;;18.71;51.72
29383;BME280;16365;51.598;7.668;2023-03-13T07:38:53;99202.66;;;18.76;51.71
29383;BME280;16365;51.598;7.668;2023-03-13T07:41:19;99201.75;;;18.83;51.86
29383;BME280;16365;51.598;7.668;2023-03-13T07:43:46;99204.09;;;18.88;51.67
29383;BME280;16365;51.598;7.668;2023-03-13T07:46:16;99205.63;;;18.92;51.60
29383;BME280;16365;51.598;7.668;2023-03-13T07:48:46;99189.53;;;18.96;51.49
29383;BME280;16365;51.598;7.668;2023-03-13T07:51:14;99201.09;;;19.02;51.69
29383;BME280;16365;51.598;7.668;2023-03-13T07:53:42;99186.94;;;19.09;51.60
29383;BME280;16365;51.598;7.668;2023-03-13T07:56:12;99178.47;;;19.13;51.58
29383;BME280;16365;51.598;7.668;2023-03-13T07:58:39;99179.16;;;19.20;51.52
29383;BME280;16365;51.598;7.668;2023-03-13T08:03:35;99187.44;;;19.31;51.42
29383;BME280;16365;51.598;7.668;2023-03-13T08:06:04;99175.72;;;19.36;51.12
29383;BME280;16365;51.598;7.668;2023-03-13T08:08:31;99151.94;;;19.41;51.16
29383;BME280;16365;51.598;7.668;2023-03-13T08:10:58;99158.66;;;19.47;51.48
29383;BME280;16365;51.598;7.668;2023-03-13T08:13:26;99173.47;;;19.51;51.39
29383;BME280;16365;51.598;7.668;2023-03-13T08:16:00;99164.19;;;19.54;51.25
29383;BME280;16365;51.598;7.668;2023-03-13T08:18:26;99155.69;;;19.58;50.98
29383;BME280;16365;51.598;7.668;2023-03-13T08:20:53;99164.88;;;19.62;50.89
29383;BME280;16365;51.598;7.668;2023-03-13T08:23:19;99172.47;;;19.65;50.92
29383;BME280;16365;51.598;7.668;2023-03-13T08:25:45;99162.38;;;19.67;51.18
29383;BME280;16365;51.598;7.668;2023-03-13T08:28:13;99167.94;;;19.71;50.88
29383;BME280;16365;51.598;7.668;2023-03-13T08:30:42;99171.50;;;19.75;50.93
29383;BME280;16365;51.598;7.668;2023-03-13T08:33:10;99159.00;;;19.76;50.81
29383;BME280;16365;51.598;7.668;2023-03-13T08:35:36;99143.31;;;19.79;50.85
29383;BME280;16365;51.598;7.668;2023-03-13T08:38:02;99154.13;;;19.80;50.57
29383;BME280;16365;51.598;7.668;2023-03-13T08:40:29;99142.44;;;19.82;50.69
29383;BME280;16365;51.598;7.668;2023-03-13T08:42:55;99148.44;;;19.84;50.24
29383;BME280;16365;51.598;7.668;2023-03-13T08:45:21;99145.19;;;19.85;50.58
29383;BME280;16365;51.598;7.668;2023-03-13T08:47:52;99153.63;;;19.85;50.09
29383;BME280;16365;51.598;7.668;2023-03-13T08:50:18;99139.50;;;19.89;50.54
29383;BME280;16365;51.598;7.668;2023-03-13T08:52:45;99147.91;;;19.92;50.43
29383;BME280;16365;51.598;7.668;2023-03-13T08:55:19;99135.81;;;19.92;50.00
29383;BME280;16365;51.598;7.668;2023-03-13T08:57:47;99156.25;;;19.96;49.92
29383;BME280;16365;51.598;7.668;2023-03-13T09:00:15;99167.88;;;19.98;49.76
29383;BME280;16365;51.598;7.668;2023-03-13T09:02:41;99160.59;;;20.00;50.22
29383;BME280;16365;51.598;7.668;2023-03-13T09:05:14;99162.56;;;20.03;50.16
29383;BME280;16365;51.598;7.668;2023-03-13T09:07:40;99168.53;;;20.06;49.98
29383;BME280;16365;51.598;7.668;2023-03-13T09:10:06;99159.25;;;20.09;50.33
29383;BME280;16365;51.598;7.668;2023-03-13T09:12:33;99166.44;;;20.10;49.94
29383;BME280;16365;51.598;7.668;2023-03-13T09:15:01;99166.00;;;20.11;49.00
29383;BME280;16365;51.598;7.668;2023-03-13T09:17:27;99154.69;;;20.15;48.88
29383;BME280;16365;51.598;7.668;2023-03-13T09:19:54;99163.94;;;20.15;48.92
29383;BME280;16365;51.598;7.668;2023-03-13T09:22:26;99159.47;;;20.18;49.25
29383;BME280;16365;51.598;7.668;2023-03-13T09:24:52;99166.25;;;20.20;49.22
29383;BME280;16365;51.598;7.668;2023-03-13T09:27:19;99158.19;;;20.22;49.50
29383;BME280;16365;51.598;7.668;2023-03-13T09:29:45;99152.09;;;20.24;49.59
29383;BME280;16365;51.598;7.668;2023-03-13T09:32:12;99153.28;;;20.26;50.20
29383;BME280;16365;51.598;7.668;2023-03-13T09:34:38;99158.47;;;20.28;49.67
29383;BME280;16365;51.598;7.668;2023-03-13T09:37:04;99155.94;;;20.34;49.73
29383;BME280;16365;51.598;7.668;2023-03-13T09:39:31;99139.78;;;20.38;49.80
29383;BME280;16365;51.598;7.668;2023-03-13T09:44:36;99137.16;;;20.50;49.99
29383;BME280;16365;51.598;7.668;2023-03-13T09:47:17;99125.28;;;20.59;50.08
29383;BME280;16365;51.598;7.668;2023-03-13T09:49:47;99134.72;;;20.69;50.46
29383;BME280;16365;51.598;7.668;2023-03-13T09:52:30;99121.28;;;20.76;50.25
29383;BME280;16365;51.598;7.668;2023-03-13T09:55:04;99125.53;;;20.85;50.35
29383;BME280;16365;51.598;7.668;2023-03-13T09:57:39;99120.53;;;20.92;50.24
29383;BME280;16365;51.598;7.668;2023-03-13T10:00:10;99124.44;;;20.98;50.55
29383;BME280;16365;51.598;7.668;2023-03-13T10:02:45;99123.00;;;21.07;50.43
29383;BME280;16365;51.598;7.668;2023-03-13T10:05:14;99128.50;;;21.14;50.04
29383;BME280;16365;51.598;7.668;2023-03-13T10:07:42;99111.84;;;21.19;49.61
29383;BME280;16365;51.598;7.668;2023-03-13T10:10:18;99104.09;;;21.23;49.93
29383;BME280;16365;51.598;7.668;2023-03-13T10:12:48;99109.63;;;21.27;49.52
29383;BME280;16365;51.598;7.668;2023-03-13T10:17:44;99125.19;;;21.35;49.66
29383;BME280;16365;51.598;7.668;2023-03-13T10:22:39;99113.81;;;21.39;49.42
29383;BME280;16365;51.598;7.668;2023-03-13T10:27:41;99101.75;;;21.38;48.20
29383;BME280;16365;51.598;7.668;2023-03-13T10:30:11;99086.41;;;21.39;48.86
29383;BME280;16365;51.598;7.668;2023-03-13T10:32:45;99094.44;;;21.41;49.33
29383;BME280;16365;51.598;7.668;2023-03-13T10:35:18;99091.19;;;21.42;49.60
29383;BME280;16365;51.598;7.668;2023-03-13T10:37:46;99083.06;;;21.44;49.25
29383;BME280;16365;51.598;7.668;2023-03-13T10:40:14;99089.41;;;21.48;48.90
29383;BME280;16365;51.598;7.668;2023-03-13T10:42:45;99096.56;;;21.53;49.28
29383;BME280;16365;51.598;7.668;2023-03-13T10:45:15;99078.31;;;21.58;49.92
29383;BME280;16365;51.598;7.668;2023-03-13T10:47:45;99067.28;;;21.63;48.50
29383;BME280;16365;51.598;7.668;2023-03-13T10:50:20;99057.81;;;21.70;49.80
29383;BME280;16365;51.598;7.668;2023-03-13T10:52:48;99061.34;;;21.74;48.79
29383;BME280;16365;51.598;7.668;2023-03-13T10:55:16;99049.88;;;21.81;49.64
29383;BME280;16365;51.598;7.668;2023-03-13T10:57:51;99051.78;;;21.84;48.96
29383;BME280;16365;51.598;7.668;2023-03-13T11:00:33;99048.31;;;21.93;49.84
29383;BME280;16365;51.598;7.668;2023-03-13T11:03:04;99042.94;;;21.98;49.25
29383;BME280;16365;51.598;7.668;2023-03-13T11:05:40;99042.84;;;22.02;46.30
29383;BME280;16365;51.598;7.668;2023-03-13T11:08:23;99038.56;;;22.10;48.80
29383;BME280;16365;51.598;7.668;2023-03-13T11:11:01;99035.66;;;22.14;48.09
29383;BME280;16365;51.598;7.668;2023-03-13T11:13:40;99033.97;;;22.16;48.86
29383;BME280;16365;51.598;7.668;2023-03-13T11:16:19;99034.81;;;22.29;48.52
29383;BME280;16365;51.598;7.668;2023-03-13T11:21:16;99030.63;;;22.47;47.55
29383;BME280;16365;51.598;7.668;2023-03-13T11:23:46;99008.28;;;22.52;46.19
29383;BME280;16365;51.598;7.668;2023-03-13T11:26:16;98999.59;;;22.60;47.86
29383;BME280;16365;51.598;7.668;2023-03-13T11:28:59;99010.78;;;22.63;46.43
29383;BME280;16365;51.598;7.668;2023-03-13T11:31:37;99000.97;;;22.68;46.97
29383;BME280;16365;51.598;7.668;2023-03-13T11:34:07;99010.09;;;22.72;47.73
29383;BME280;16365;51.598;7.668;2023-03-13T11:54:36;98988.16;;;23.01;46.67
29383;BME280;16365;51.598;7.668;2023-03-13T11:57:09;98985.22;;;23.05;45.55
29383;BME280;16365;51.598;7.668;2023-03-13T12:02:21;98986.56;;;23.13;46.12
29383;BME280;16365;51.598;7.668;2023-03-13T12:04:53;98946.88;;;23.17;46.97
29383;BME280;16365;51.598;7.668;2023-03-13T12:07:25;98977.63;;;23.15;42.71
29383;BME280;16365;51.598;7.668;2023-03-13T12:09:58;98957.38;;;23.16;45.25
29383;BME280;16365;51.598;7.668;2023-03-13T12:15:00;98949.03;;;23.13;44.19
29383;BME280;16365;51.598;7.668;2023-03-13T12:17:34;98944.72;;;23.08;44.23
29383;BME280;16365;51.598;7.668;2023-03-13T12:22:38;98937.81;;;23.09;45.43
29383;BME280;16365;51.598;7.668;2023-03-13T12:25:24;98902.66;;;23.10;43.95
29383;BME280;16365;51.598;7.668;2023-03-13T12:27:56;98914.63;;;23.14;45.20
29383;BME280;16365;51.598;7.668;2023-03-13T12:30:26;98921.84;;;23.15;41.94
29383;BME280;16365;51.598;7.668;2023-03-13T12:33:17;98939.16;;;23.17;42.06
29383;BME280;16365;51.598;7.668;2023-03-13T12:36:08;98919.22;;;23.21;43.01
29383;BME280;16365;51.598;7.668;2023-03-13T12:38:37;98904.66;;;23.22;43.74
29383;BME280;16365;51.598;7.668;2023-03-13T12:41:16;98916.63;;;23.26;44.06
29383;BME280;16365;51.598;7.668;2023-03-13T12:43:46;98894.66;;;23.30;43.80
29383;BME280;16365;51.598;7.668;2023-03-13T12:47:15;98899.28;;;23.37;43.83
29383;BME280;16365;51.598;7.668;2023-03-13T12:52:07;98888.81;;;23.47;45.02
29383;BME280;16365;51.598;7.668;2023-03-13T12:54:39;98891.38;;;23.54;42.26
29383;BME280;16365;51.598;7.668;2023-03-13T12:57:20;98887.31;;;23.55;40.97
29383;BME280;16365;51.598;7.668;2023-03-13T12:59:54;98856.19;;;23.55;40.16
29383;BME280;16365;51.598;7.668;2023-03-13T13:02:22;98888.75;;;23.59;43.58
29383;BME280;16365;51.598;7.668;2023-03-13T13:04:50;98883.09;;;23.59;43.08
29383;BME280;16365;51.598;7.668;2023-03-13T13:12:33;98863.28;;;23.59;42.32
29383;BME280;16365;51.598;7.668;2023-03-13T13:15:00;98868.13;;;23.59;43.83
29383;BME280;16365;51.598;7.668;2023-03-13T13:17:40;98865.00;;;23.57;43.37
29383;BME280;16365;51.598;7.668;2023-03-13T13:20:27;98873.16;;;23.55;42.89
29383;BME280;16365;51.598;7.668;2023-03-13T13:22:55;98856.97;;;23.55;42.53
29383;BME280;16365;51.598;7.668;2023-03-13T13:25:30;98860.91;;;23.58;43.75
29383;BME280;16365;51.598;7.668;2023-03-13T13:28:09;98854.81;;;23.59;43.75
29383;BME280;16365;51.598;7.668;2023-03-13T13:30:38;98864.09;;;23.60;43.73
29383;BME280;16365;51.598;7.668;2023-03-13T13:35:44;98853.44;;;23.64;44.66
29383;BME280;16365;51.598;7.668;2023-03-13T13:40:57;98845.28;;;23.66;44.25
29383;BME280;16365;51.598;7.668;2023-03-13T13:43:23;98843.25;;;23.67;43.55
29383;BME280;16365;51.598;7.668;2023-03-13T13:46:32;98841.97;;;23.68;42.50
29383;BME280;16365;51.598;7.668;2023-03-13T13:48:40;98832.56;;;23.71;43.85
29383;BME280;16365;51.598;7.668;2023-03-13T13:53:44;98845.47;;;23.72;42.65
29383;BME280;16365;51.598;7.668;2023-03-13T13:59:02;98842.63;;;23.72;43.57
29383;BME280;16365;51.598;7.668;2023-03-13T14:01:31;98846.25;;;23.72;42.68
29383;BME280;16365;51.598;7.668;2023-03-13T14:04:09;98832.88;;;23.73;41.47
29383;BME280;16365;51.598;7.668;2023-03-13T14:06:44;98830.06;;;23.73;43.81
29383;BME280;16365;51.598;7.668;2023-03-13T14:12:25;98820.13;;;23.68;41.68
29383;BME280;16365;51.598;7.668;2023-03-13T14:15:11;98807.25;;;23.67;42.48
29383;BME280;16365;51.598;7.668;2023-03-13T14:17:42;98802.50;;;23.64;40.52
29383;BME280;16365;51.598;7.668;2023-03-13T14:20:24;98786.91;;;23.59;42.32
29383;BME280;16365;51.598;7.668;2023-03-13T14:22:53;98805.13;;;23.58;42.65